Alfarata, Pennsylvania
Current Conditions -  °F | °C
As of 11:15 PM on Wednesday 17 Dec 2014 (Local Time) from KUNV Reporting Station
Overcast Overcast  
Wind Chill: 20°   Ceiling: 2900
Heat Index: 31°   Visibility: 10mi
Dew Point: 20°   Wind: 16mph
Humidity: 65%   Direction: 270°W
Pressure: 30.03"   Gusts: 26mph
Location:  40.7125°N, 77.3707°W
Report Text: KUNV 180415Z AUTO 27014G23KT 10SM OVC029 M01/M06 A3003 RMK AO2 T10071065
Loading
Personal Weather Stations






























Interactive Weather Map New forecast layout! Learn more

10-Day Weather Forecast

Advertisements
Track Severe Weather on mobile